sensor_id;sensor_type;location;lat;lon;timestamp;pressure;altitude;pressure_sealevel;temperature;humidity
57074;BME280;69035;54.392;18.574;2023-04-10T00:00:12;102480.91;;;3.27;72.57
57074;BME280;69035;54.392;18.574;2023-04-10T00:03:01;102471.34;;;3.26;72.38
57074;BME280;69035;54.392;18.574;2023-04-10T00:05:32;102477.34;;;3.25;72.57
57074;BME280;69035;54.392;18.574;2023-04-10T00:08:01;102476.47;;;3.25;72.50
57074;BME280;69035;54.392;18.574;2023-04-10T00:10:30;102477.94;;;3.20;73.05
57074;BME280;69035;54.392;18.574;2023-04-10T00:12:59;102475.28;;;3.18;73.89
57074;BME280;69035;54.392;18.574;2023-04-10T00:15:29;102479.22;;;3.10;74.17
57074;BME280;69035;54.392;18.574;2023-04-10T00:17:58;102476.63;;;3.10;73.74
57074;BME280;69035;54.392;18.574;2023-04-10T00:20:28;102477.41;;;3.07;73.58
57074;BME280;69035;54.392;18.574;2023-04-10T00:23:00;102475.66;;;3.08;73.36
57074;BME280;69035;54.392;18.574;2023-04-10T00:25:29;102479.06;;;3.07;73.55
57074;BME280;69035;54.392;18.574;2023-04-10T00:27:58;102473.16;;;3.09;73.80
57074;BME280;69035;54.392;18.574;2023-04-10T00:30:27;102472.34;;;3.10;74.33
57074;BME280;69035;54.392;18.574;2023-04-10T00:32:56;102464.28;;;3.06;74.32
57074;BME280;69035;54.392;18.574;2023-04-10T00:35:25;102463.34;;;3.04;73.76
57074;BME280;69035;54.392;18.574;2023-04-10T00:37:54;102464.28;;;3.06;73.48
57074;BME280;69035;54.392;18.574;2023-04-10T00:40:25;102466.81;;;3.04;72.92
57074;BME280;69035;54.392;18.574;2023-04-10T00:42:57;102464.22;;;3.04;73.55
57074;BME280;69035;54.392;18.574;2023-04-10T00:45:26;102452.38;;;2.91;73.21
57074;BME280;69035;54.392;18.574;2023-04-10T00:47:55;102464.00;;;3.00;73.42
57074;BME280;69035;54.392;18.574;2023-04-10T00:50:24;102469.81;;;2.94;72.67
57074;BME280;69035;54.392;18.574;2023-04-10T00:52:53;102466.31;;;2.93;73.27
57074;BME280;69035;54.392;18.574;2023-04-10T00:55:22;102433.53;;;2.77;73.62
57074;BME280;69035;54.392;18.574;2023-04-10T00:57:55;102466.19;;;2.90;73.63
57074;BME280;69035;54.392;18.574;2023-04-10T01:00:24;102464.25;;;2.86;73.95
57074;BME280;69035;54.392;18.574;2023-04-10T01:02:53;102462.31;;;2.82;73.95
57074;BME280;69035;54.392;18.574;2023-04-10T01:05:23;102461.97;;;2.74;74.34
57074;BME280;69035;54.392;18.574;2023-04-10T01:08:11;102461.00;;;2.72;73.76
57074;BME280;69035;54.392;18.574;2023-04-10T01:10:48;102460.91;;;2.71;73.48
57074;BME280;69035;54.392;18.574;2023-04-10T01:13:26;102461.44;;;2.64;74.45
57074;BME280;69035;54.392;18.574;2023-04-10T01:15:58;102458.00;;;2.65;74.04
57074;BME280;69035;54.392;18.574;2023-04-10T01:18:33;102452.59;;;2.60;74.40
57074;BME280;69035;54.392;18.574;2023-04-10T01:21:07;102458.84;;;2.64;73.97
57074;BME280;69035;54.392;18.574;2023-04-10T01:23:51;102458.84;;;2.64;74.27
57074;BME280;69035;54.392;18.574;2023-04-10T01:26:35;102456.00;;;2.59;74.73
57074;BME280;69035;54.392;18.574;2023-04-10T01:29:11;102457.88;;;2.61;74.01
57074;BME280;69035;54.392;18.574;2023-04-10T01:31:49;102461.19;;;2.59;74.07
57074;BME280;69035;54.392;18.574;2023-04-10T01:34:24;102466.63;;;2.64;74.35
57074;BME280;69035;54.392;18.574;2023-04-10T01:36:59;102463.28;;;2.66;74.18
57074;BME280;69035;54.392;18.574;2023-04-10T01:39:30;102463.13;;;2.63;73.87
57074;BME280;69035;54.392;18.574;2023-04-10T01:42:05;102461.13;;;2.57;74.31
57074;BME280;69035;54.392;18.574;2023-04-10T01:44:45;102464.22;;;2.50;74.08
57074;BME280;69035;54.392;18.574;2023-04-10T01:47:15;102460.03;;;2.52;74.52
57074;BME280;69035;54.392;18.574;2023-04-10T01:49:46;102457.19;;;2.48;74.10
57074;BME280;69035;54.392;18.574;2023-04-10T01:52:20;102456.88;;;2.41;75.05
57074;BME280;69035;54.392;18.574;2023-04-10T01:55:00;102455.91;;;2.39;75.41
57074;BME280;69035;54.392;18.574;2023-04-10T01:57:39;102449.75;;;2.37;75.27
57074;BME280;69035;54.392;18.574;2023-04-10T02:00:11;102462.50;;;2.33;74.97
57074;BME280;69035;54.392;18.574;2023-04-10T02:02:40;102443.38;;;2.31;75.53
57074;BME280;69035;54.392;18.574;2023-04-10T02:05:10;102445.25;;;2.33;75.16
57074;BME280;69035;54.392;18.574;2023-04-10T02:07:43;102446.78;;;2.30;75.89
57074;BME280;69035;54.392;18.574;2023-04-10T02:10:18;102447.84;;;2.33;75.74
57074;BME280;69035;54.392;18.574;2023-04-10T02:12:51;102448.72;;;2.34;75.21
57074;BME280;69035;54.392;18.574;2023-04-10T02:15:27;102454.78;;;2.34;74.93
57074;BME280;69035;54.392;18.574;2023-04-10T02:17:58;102457.31;;;2.33;74.56
57074;BME280;69035;54.392;18.574;2023-04-10T02:20:30;102459.81;;;2.31;74.54
57074;BME280;69035;54.392;18.574;2023-04-10T02:22:59;102457.31;;;2.33;74.92
57074;BME280;69035;54.392;18.574;2023-04-10T02:25:30;102460.41;;;2.25;74.84
57074;BME280;69035;54.392;18.574;2023-04-10T02:28:03;102452.69;;;2.27;74.81
57074;BME280;69035;54.392;18.574;2023-04-10T02:30:34;102462.13;;;2.25;75.31
57074;BME280;69035;54.392;18.574;2023-04-10T02:33:03;102456.69;;;2.20;75.35
57074;BME280;69035;54.392;18.574;2023-04-10T02:35:32;102454.84;;;2.18;75.66
57074;BME280;69035;54.392;18.574;2023-04-10T02:38:02;102449.50;;;2.15;75.57
57074;BME280;69035;54.392;18.574;2023-04-10T02:40:36;102450.44;;;2.17;75.67
57074;BME280;69035;54.392;18.574;2023-04-10T02:43:11;102452.09;;;2.15;76.04
57074;BME280;69035;54.392;18.574;2023-04-10T02:45:41;102460.75;;;2.15;75.95
57074;BME280;69035;54.392;18.574;2023-04-10T02:48:13;102457.34;;;2.16;75.61
57074;BME280;69035;54.392;18.574;2023-04-10T02:50:44;102462.53;;;2.16;75.35
57074;BME280;69035;54.392;18.574;2023-04-10T02:53:15;102463.41;;;2.17;75.23
57074;BME280;69035;54.392;18.574;2023-04-10T02:55:44;102458.81;;;2.11;75.00
57074;BME280;69035;54.392;18.574;2023-04-10T02:58:12;102457.84;;;2.09;75.49
57074;BME280;69035;54.392;18.574;2023-04-10T03:00:48;102460.13;;;2.03;75.35
57074;BME280;69035;54.392;18.574;2023-04-10T03:03:38;102470.09;;;1.95;76.00
57074;BME280;69035;54.392;18.574;2023-04-10T03:06:08;102454.38;;;1.92;76.41
57074;BME280;69035;54.392;18.574;2023-04-10T03:08:37;102457.38;;;2.00;76.53
57074;BME280;69035;54.392;18.574;2023-04-10T03:11:07;102461.66;;;1.99;76.49
57074;BME280;69035;54.392;18.574;2023-04-10T03:13:36;102464.25;;;1.99;76.12
57074;BME280;69035;54.392;18.574;2023-04-10T03:16:06;102463.31;;;1.97;75.69
57074;BME280;69035;54.392;18.574;2023-04-10T03:18:36;102464.19;;;1.98;75.55
57074;BME280;69035;54.392;18.574;2023-04-10T03:21:05;102464.19;;;1.98;75.50
57074;BME280;69035;54.392;18.574;2023-04-10T03:23:34;102463.31;;;1.97;75.50
57074;BME280;69035;54.392;18.574;2023-04-10T03:26:03;102455.44;;;1.96;75.94
57074;BME280;69035;54.392;18.574;2023-04-10T03:28:36;102453.56;;;1.93;76.06
57074;BME280;69035;54.392;18.574;2023-04-10T03:31:10;102433.59;;;1.74;75.75
57074;BME280;69035;54.392;18.574;2023-04-10T03:33:41;102450.66;;;1.87;76.04
57074;BME280;69035;54.392;18.574;2023-04-10T03:36:10;102451.47;;;1.86;76.71
57074;BME280;69035;54.392;18.574;2023-04-10T03:38:39;102458.38;;;1.85;76.60
57074;BME280;69035;54.392;18.574;2023-04-10T03:41:08;102459.97;;;1.83;77.54
57074;BME280;69035;54.392;18.574;2023-04-10T03:43:38;102457.53;;;1.86;76.37
57074;BME280;69035;54.392;18.574;2023-04-10T03:46:09;102462.84;;;1.88;76.18
57074;BME280;69035;54.392;18.574;2023-04-10T03:48:41;102457.53;;;1.86;75.81
57074;BME280;69035;54.392;18.574;2023-04-10T03:51:10;102455.78;;;1.85;75.66
57074;BME280;69035;54.392;18.574;2023-04-10T03:53:39;102458.22;;;1.82;75.64
57074;BME280;69035;54.392;18.574;2023-04-10T03:56:15;102460.88;;;1.84;75.75
57074;BME280;69035;54.392;18.574;2023-04-10T03:58:46;102439.81;;;1.78;75.68
57074;BME280;69035;54.392;18.574;2023-04-10T04:01:16;102461.13;;;1.88;75.72
57074;BME280;69035;54.392;18.574;2023-04-10T04:04:11;102464.28;;;1.83;75.10
57074;BME280;69035;54.392;18.574;2023-04-10T04:06:50;102460.81;;;1.82;76.05
57074;BME280;69035;54.392;18.574;2023-04-10T04:09:41;102459.91;;;1.82;75.87
57074;BME280;69035;54.392;18.574;2023-04-10T04:12:21;102468.03;;;1.88;75.86
57074;BME280;69035;54.392;18.574;2023-04-10T04:15:10;102468.25;;;1.92;75.39
57074;BME280;69035;54.392;18.574;2023-04-10T04:17:56;102472.44;;;1.90;75.44
57074;BME280;69035;54.392;18.574;2023-04-10T04:20:33;102476.91;;;1.93;75.75
57074;BME280;69035;54.392;18.574;2023-04-10T04:23:12;102481.47;;;1.97;76.01
57074;BME280;69035;54.392;18.574;2023-04-10T04:25:41;102480.97;;;2.04;75.72
57074;BME280;69035;54.392;18.574;2023-04-10T04:28:23;102480.38;;;2.10;75.29
57074;BME280;69035;54.392;18.574;2023-04-10T04:31:17;102477.16;;;2.14;74.97
57074;BME280;69035;54.392;18.574;2023-04-10T04:34:11;102478.25;;;2.19;74.92
57074;BME280;69035;54.392;18.574;2023-04-10T04:36:58;102474.22;;;2.24;75.26
57074;BME280;69035;54.392;18.574;2023-04-10T04:39:48;102482.28;;;2.31;75.22
57074;BME280;69035;54.392;18.574;2023-04-10T04:42:33;102475.69;;;2.37;75.02
57074;BME280;69035;54.392;18.574;2023-04-10T04:45:17;102478.63;;;2.43;75.11
57074;BME280;69035;54.392;18.574;2023-04-10T04:48:06;102480.38;;;2.44;75.57
57074;BME280;69035;54.392;18.574;2023-04-10T04:51:01;102491.91;;;2.50;75.53
57074;BME280;69035;54.392;18.574;2023-04-10T04:53:51;102489.66;;;2.57;75.60
57074;BME280;69035;54.392;18.574;2023-04-10T04:56:44;102488.28;;;2.64;76.01
57074;BME280;69035;54.392;18.574;2023-04-10T04:59:30;102499.19;;;2.75;75.84
57074;BME280;69035;54.392;18.574;2023-04-10T05:01:59;102500.69;;;2.88;75.39
57074;BME280;69035;54.392;18.574;2023-04-10T05:04:56;102502.25;;;3.02;75.36
57074;BME280;69035;54.392;18.574;2023-04-10T05:07:50;102488.66;;;3.08;74.85
57074;BME280;69035;54.392;18.574;2023-04-10T05:10:48;102497.28;;;3.25;74.96
57074;BME280;69035;54.392;18.574;2023-04-10T05:13:34;102496.94;;;3.37;74.54
57074;BME280;69035;54.392;18.574;2023-04-10T05:16:13;102498.47;;;3.51;75.04
57074;BME280;69035;54.392;18.574;2023-04-10T05:19:10;102497.31;;;3.64;75.08
57074;BME280;69035;54.392;18.574;2023-04-10T05:22:11;102505.75;;;3.78;74.22
57074;BME280;69035;54.392;18.574;2023-04-10T05:24:53;102498.56;;;3.92;74.64
57074;BME280;69035;54.392;18.574;2023-04-10T05:27:38;102507.03;;;4.07;74.20
57074;BME280;69035;54.392;18.574;2023-04-10T05:30:26;102505.78;;;4.18;75.03
57074;BME280;69035;54.392;18.574;2023-04-10T05:33:21;102505.69;;;4.36;73.31
57074;BME280;69035;54.392;18.574;2023-04-10T05:36:16;102505.47;;;4.51;72.76
57074;BME280;69035;54.392;18.574;2023-04-10T05:38:54;102497.41;;;4.66;72.89
57074;BME280;69035;54.392;18.574;2023-04-10T05:41:47;102501.47;;;4.81;71.77
57074;BME280;69035;54.392;18.574;2023-04-10T05:44:39;102498.69;;;4.99;72.48
57074;BME280;69035;54.392;18.574;2023-04-10T05:47:39;102498.59;;;5.18;71.28
57074;BME280;69035;54.392;18.574;2023-04-10T05:50:20;102491.31;;;5.32;71.23
57074;BME280;69035;54.392;18.574;2023-04-10T05:53:13;102499.84;;;5.51;71.27
57074;BME280;69035;54.392;18.574;2023-04-10T05:56:20;102497.84;;;5.68;69.78
57074;BME280;69035;54.392;18.574;2023-04-10T05:59:20;102493.38;;;5.88;70.20
57074;BME280;69035;54.392;18.574;2023-04-10T06:02:02;102490.53;;;6.04;69.18
57074;BME280;69035;54.392;18.574;2023-04-10T06:04:31;102495.41;;;6.19;68.87
57074;BME280;69035;54.392;18.574;2023-04-10T06:07:00;102495.97;;;6.36;69.01
57074;BME280;69035;54.392;18.574;2023-04-10T06:09:31;102493.84;;;6.50;68.27
57074;BME280;69035;54.392;18.574;2023-04-10T06:12:00;102491.81;;;6.67;68.75
57074;BME280;69035;54.392;18.574;2023-04-10T06:14:31;102491.38;;;6.80;68.16
57074;BME280;69035;54.392;18.574;2023-04-10T06:17:00;102488.31;;;6.94;67.40
57074;BME280;69035;54.392;18.574;2023-04-10T06:19:29;102500.09;;;7.08;67.45
57074;BME280;69035;54.392;18.574;2023-04-10T06:21:58;102499.56;;;7.20;67.13
57074;BME280;69035;54.392;18.574;2023-04-10T06:24:28;102503.47;;;7.33;66.34
57074;BME280;69035;54.392;18.574;2023-04-10T06:26:56;102499.53;;;7.47;65.79
57074;BME280;69035;54.392;18.574;2023-04-10T06:29:26;102496.47;;;7.62;65.11
57074;BME280;69035;54.392;18.574;2023-04-10T06:31:57;102498.59;;;7.76;64.92
57074;BME280;69035;54.392;18.574;2023-04-10T06:34:30;102503.34;;;7.89;64.50
57074;BME280;69035;54.392;18.574;2023-04-10T06:37:02;102500.19;;;8.01;64.12
57074;BME280;69035;54.392;18.574;2023-04-10T06:39:32;102491.88;;;8.16;63.91
57074;BME280;69035;54.392;18.574;2023-04-10T06:42:00;102503.59;;;8.30;63.57
57074;BME280;69035;54.392;18.574;2023-04-10T06:44:42;102495.22;;;8.44;63.36
57074;BME280;69035;54.392;18.574;2023-04-10T06:47:12;102497.25;;;8.54;62.14
57074;BME280;69035;54.392;18.574;2023-04-10T06:49:43;102491.44;;;8.66;62.48
57074;BME280;69035;54.392;18.574;2023-04-10T06:52:12;102496.13;;;8.79;61.81
57074;BME280;69035;54.392;18.574;2023-04-10T06:54:41;102495.53;;;8.91;61.23
57074;BME280;69035;54.392;18.574;2023-04-10T06:57:09;102498.47;;;9.05;60.92
57074;BME280;69035;54.392;18.574;2023-04-10T06:59:38;102489.09;;;9.15;60.77
57074;BME280;69035;54.392;18.574;2023-04-10T07:02:07;102489.47;;;9.32;60.33
57074;BME280;69035;54.392;18.574;2023-04-10T07:04:38;102492.34;;;9.42;59.81
57074;BME280;69035;54.392;18.574;2023-04-10T07:07:07;102490.91;;;9.57;59.31
57074;BME280;69035;54.392;18.574;2023-04-10T07:09:39;102499.03;;;9.71;59.01
57074;BME280;69035;54.392;18.574;2023-04-10T07:12:07;102489.69;;;9.85;59.08
57074;BME280;69035;54.392;18.574;2023-04-10T07:14:36;102489.97;;;9.98;59.01
57074;BME280;69035;54.392;18.574;2023-04-10T07:17:05;102484.00;;;10.06;58.85
57074;BME280;69035;54.392;18.574;2023-04-10T07:19:34;102489.41;;;10.16;58.34
57074;BME280;69035;54.392;18.574;2023-04-10T07:22:06;102486.19;;;10.32;57.85
57074;BME280;69035;54.392;18.574;2023-04-10T07:24:35;102482.06;;;10.45;57.50
57074;BME280;69035;54.392;18.574;2023-04-10T07:27:04;102482.25;;;10.54;56.55
57074;BME280;69035;54.392;18.574;2023-04-10T07:29:32;102485.06;;;10.67;56.52
57074;BME280;69035;54.392;18.574;2023-04-10T07:32:01;102485.22;;;10.76;57.65
57074;BME280;69035;54.392;18.574;2023-04-10T07:34:31;102479.22;;;10.86;56.51
57074;BME280;69035;54.392;18.574;2023-04-10T07:37:00;102490.81;;;10.97;57.09
57074;BME280;69035;54.392;18.574;2023-04-10T07:39:30;102486.63;;;11.10;56.65
57074;BME280;69035;54.392;18.574;2023-04-10T07:41:59;102484.13;;;11.21;55.61
57074;BME280;69035;54.392;18.574;2023-04-10T07:44:28;102485.09;;;11.26;55.70
57074;BME280;69035;54.392;18.574;2023-04-10T07:46:56;102486.97;;;11.35;55.69
57074;BME280;69035;54.392;18.574;2023-04-10T07:49:25;102484.44;;;11.44;56.04
57074;BME280;69035;54.392;18.574;2023-04-10T07:51:54;102480.25;;;11.59;55.82
57074;BME280;69035;54.392;18.574;2023-04-10T07:54:23;102472.47;;;11.66;55.53
57074;BME280;69035;54.392;18.574;2023-04-10T07:56:53;102474.41;;;11.83;55.90
57074;BME280;69035;54.392;18.574;2023-04-10T07:59:22;102464.00;;;11.94;54.72
57074;BME280;69035;54.392;18.574;2023-04-10T08:01:51;102470.25;;;12.03;54.63
57074;BME280;69035;54.392;18.574;2023-04-10T08:04:20;102470.31;;;12.11;54.30
57074;BME280;69035;54.392;18.574;2023-04-10T08:06:49;102465.16;;;12.20;53.85
57074;BME280;69035;54.392;18.574;2023-04-10T08:09:18;102464.38;;;12.29;53.63
57074;BME280;69035;54.392;18.574;2023-04-10T08:11:46;102456.50;;;12.34;53.16
57074;BME280;69035;54.392;18.574;2023-04-10T08:14:16;102463.41;;;12.21;53.05
57074;BME280;69035;54.392;18.574;2023-04-10T08:16:45;102463.41;;;12.21;52.80
57074;BME280;69035;54.392;18.574;2023-04-10T08:19:14;102460.84;;;12.29;52.15
57074;BME280;69035;54.392;18.574;2023-04-10T08:21:43;102465.31;;;12.41;52.87
57074;BME280;69035;54.392;18.574;2023-04-10T08:24:12;102462.81;;;12.51;52.31
57074;BME280;69035;54.392;18.574;2023-04-10T08:26:41;102462.88;;;12.64;51.87
57074;BME280;69035;54.392;18.574;2023-04-10T08:29:11;102464.72;;;12.74;51.59
57074;BME280;69035;54.392;18.574;2023-04-10T08:31:41;102454.25;;;12.82;50.86
57074;BME280;69035;54.392;18.574;2023-04-10T08:34:10;102456.06;;;12.92;50.98
57074;BME280;69035;54.392;18.574;2023-04-10T08:36:39;102454.31;;;12.96;50.91
57074;BME280;69035;54.392;18.574;2023-04-10T08:39:08;102455.19;;;12.93;50.50
57074;BME280;69035;54.392;18.574;2023-04-10T08:41:39;102454.31;;;12.94;49.56
57074;BME280;69035;54.392;18.574;2023-04-10T08:44:08;102451.69;;;13.00;49.98
57074;BME280;69035;54.392;18.574;2023-04-10T08:46:42;102451.78;;;13.14;49.10
57074;BME280;69035;54.392;18.574;2023-04-10T08:49:16;102449.22;;;13.27;48.88
57074;BME280;69035;54.392;18.574;2023-04-10T08:51:49;102443.03;;;13.26;48.54
57074;BME280;69035;54.392;18.574;2023-04-10T08:54:24;102437.78;;;13.32;47.79
57074;BME280;69035;54.392;18.574;2023-04-10T08:56:54;102431.63;;;13.25;48.19
57074;BME280;69035;54.392;18.574;2023-04-10T08:59:23;102435.13;;;13.24;48.16
57074;BME280;69035;54.392;18.574;2023-04-10T09:01:52;102428.19;;;13.39;48.36
57074;BME280;69035;54.392;18.574;2023-04-10T09:04:22;102432.63;;;13.46;47.73
57074;BME280;69035;54.392;18.574;2023-04-10T09:06:51;102431.75;;;13.47;47.63
57074;BME280;69035;54.392;18.574;2023-04-10T09:09:20;102430.88;;;13.53;47.42
57074;BME280;69035;54.392;18.574;2023-04-10T09:11:56;102433.56;;;13.64;47.01
57074;BME280;69035;54.392;18.574;2023-04-10T09:14:29;102435.34;;;13.72;46.91
57074;BME280;69035;54.392;18.574;2023-04-10T09:17:13;102431.84;;;13.78;44.42
57074;BME280;69035;54.392;18.574;2023-04-10T09:19:44;102441.53;;;13.82;45.74
57074;BME280;69035;54.392;18.574;2023-04-10T09:22:13;102438.91;;;13.81;45.41
57074;BME280;69035;54.392;18.574;2023-04-10T09:24:46;102428.34;;;14.01;45.12
57074;BME280;69035;54.392;18.574;2023-04-10T09:27:27;102430.16;;;14.17;44.46
57074;BME280;69035;54.392;18.574;2023-04-10T09:29:57;102424.84;;;14.23;45.14
57074;BME280;69035;54.392;18.574;2023-04-10T09:32:39;102424.84;;;14.23;43.26
57074;BME280;69035;54.392;18.574;2023-04-10T09:35:09;102418.69;;;14.29;44.95
57074;BME280;69035;54.392;18.574;2023-04-10T09:37:39;102415.16;;;14.38;44.72
57074;BME280;69035;54.392;18.574;2023-04-10T09:40:19;102409.88;;;14.36;41.60
57074;BME280;69035;54.392;18.574;2023-04-10T09:42:48;102412.50;;;14.24;43.36
57074;BME280;69035;54.392;18.574;2023-04-10T09:45:17;102416.91;;;14.05;42.83
57074;BME280;69035;54.392;18.574;2023-04-10T09:48:02;102410.75;;;13.95;42.41
57074;BME280;69035;54.392;18.574;2023-04-10T09:50:34;102406.31;;;13.88;42.86
57074;BME280;69035;54.392;18.574;2023-04-10T09:53:06;102415.13;;;13.81;42.63
57074;BME280;69035;54.392;18.574;2023-04-10T09:55:35;102410.69;;;13.84;43.50
57074;BME280;69035;54.392;18.574;2023-04-10T09:58:05;102402.81;;;13.98;43.53
57074;BME280;69035;54.392;18.574;2023-04-10T10:00:38;102409.84;;;13.82;43.44
57074;BME280;69035;54.392;18.574;2023-04-10T10:03:11;102409.88;;;14.04;43.86
57074;BME280;69035;54.392;18.574;2023-04-10T10:05:41;102407.22;;;14.16;44.58
57074;BME280;69035;54.392;18.574;2023-04-10T10:08:13;102403.69;;;14.20;44.40
57074;BME280;69035;54.392;18.574;2023-04-10T10:10:45;102403.69;;;14.36;44.25
57074;BME280;69035;54.392;18.574;2023-04-10T10:13:15;102402.81;;;14.23;44.22
57074;BME280;69035;54.392;18.574;2023-04-10T10:15:52;102402.84;;;14.21;42.72
57074;BME280;69035;54.392;18.574;2023-04-10T10:18:32;102398.38;;;13.97;43.57
57074;BME280;69035;54.392;18.574;2023-04-10T10:21:04;102399.22;;;13.76;43.27
57074;BME280;69035;54.392;18.574;2023-04-10T10:23:36;102400.13;;;13.90;44.25
57074;BME280;69035;54.392;18.574;2023-04-10T10:26:05;102392.22;;;13.98;44.02
57074;BME280;69035;54.392;18.574;2023-04-10T10:28:35;102393.09;;;14.08;44.12
57074;BME280;69035;54.392;18.574;2023-04-10T10:31:06;102386.94;;;14.20;44.26
57074;BME280;69035;54.392;18.574;2023-04-10T10:33:37;102381.66;;;14.38;44.20
57074;BME280;69035;54.392;18.574;2023-04-10T10:36:07;102385.19;;;14.37;43.70
57074;BME280;69035;54.392;18.574;2023-04-10T10:38:45;102376.34;;;14.38;43.39
57074;BME280;69035;54.392;18.574;2023-04-10T10:41:22;102383.41;;;14.56;42.97
57074;BME280;69035;54.392;18.574;2023-04-10T10:43:57;102379.00;;;14.54;43.46
57074;BME280;69035;54.392;18.574;2023-04-10T10:46:34;102374.59;;;14.50;43.16
57074;BME280;69035;54.392;18.574;2023-04-10T10:49:06;102379.88;;;14.45;43.80
57074;BME280;69035;54.392;18.574;2023-04-10T10:51:42;102364.91;;;14.22;42.72
57074;BME280;69035;54.392;18.574;2023-04-10T10:54:27;102370.19;;;14.38;42.67
57074;BME280;69035;54.392;18.574;2023-04-10T10:56:56;102369.31;;;14.48;43.87
57074;BME280;69035;54.392;18.574;2023-04-10T10:59:53;102357.81;;;14.58;42.77
57074;BME280;69035;54.392;18.574;2023-04-10T11:02:23;102363.13;;;14.49;44.01
57074;BME280;69035;54.392;18.574;2023-04-10T11:04:54;102359.56;;;14.52;43.63
57074;BME280;69035;54.392;18.574;2023-04-10T11:08:06;102353.41;;;14.74;43.01
57074;BME280;69035;54.392;18.574;2023-04-10T11:10:59;102351.53;;;15.07;42.99
57074;BME280;69035;54.392;18.574;2023-04-10T11:13:29;102351.47;;;15.21;42.78
57074;BME280;69035;54.392;18.574;2023-04-10T11:15:59;102347.94;;;15.19;42.63
57074;BME280;69035;54.392;18.574;2023-04-10T11:19:04;102344.38;;;15.20;42.00
57074;BME280;69035;54.392;18.574;2023-04-10T11:22:04;102338.19;;;15.30;42.77
57074;BME280;69035;54.392;18.574;2023-04-10T11:24:53;102332.09;;;15.10;42.32
57074;BME280;69035;54.392;18.574;2023-04-10T11:27:43;102335.72;;;14.90;43.26
57074;BME280;69035;54.392;18.574;2023-04-10T11:30:29;102335.75;;;14.81;43.45
57074;BME280;69035;54.392;18.574;2023-04-10T11:32:59;102331.28;;;14.91;43.75
57074;BME280;69035;54.392;18.574;2023-04-10T11:35:32;102333.09;;;14.86;43.75
57074;BME280;69035;54.392;18.574;2023-04-10T11:38:10;102313.72;;;14.70;43.42
57074;BME280;69035;54.392;18.574;2023-04-10T11:40:55;102322.50;;;14.87;43.13
57074;BME280;69035;54.392;18.574;2023-04-10T11:43:24;102317.19;;;14.87;43.65
57074;BME280;69035;54.392;18.574;2023-04-10T11:46:00;102327.78;;;14.84;43.88
57074;BME280;69035;54.392;18.574;2023-04-10T11:48:29;102314.53;;;14.89;44.20
57074;BME280;69035;54.392;18.574;2023-04-10T11:50:58;102315.41;;;14.89;44.33
57074;BME280;69035;54.392;18.574;2023-04-10T11:53:36;102318.00;;;15.03;44.11
57074;BME280;69035;54.392;18.574;2023-04-10T11:56:14;102311.84;;;14.99;44.52
57074;BME280;69035;54.392;18.574;2023-04-10T11:58:42;102314.47;;;15.06;44.36
57074;BME280;69035;54.392;18.574;2023-04-10T12:01:11;102310.03;;;15.11;44.14
57074;BME280;69035;54.392;18.574;2023-04-10T12:03:42;102305.59;;;15.10;43.16
57074;BME280;69035;54.392;18.574;2023-04-10T12:06:13;102303.91;;;14.98;43.25
57074;BME280;69035;54.392;18.574;2023-04-10T12:08:44;102296.00;;;14.92;44.22
57074;BME280;69035;54.392;18.574;2023-04-10T12:11:17;102307.47;;;14.86;44.00
57074;BME280;69035;54.392;18.574;2023-04-10T12:13:46;102284.56;;;14.82;43.89
57074;BME280;69035;54.392;18.574;2023-04-10T12:16:15;102296.03;;;14.84;43.51
57074;BME280;69035;54.392;18.574;2023-04-10T12:18:44;102289.84;;;14.90;43.65
57074;BME280;69035;54.392;18.574;2023-04-10T12:21:14;102295.13;;;14.88;43.54
57074;BME280;69035;54.392;18.574;2023-04-10T12:23:45;102290.66;;;14.96;43.93
57074;BME280;69035;54.392;18.574;2023-04-10T12:26:16;102284.53;;;14.85;42.18
57074;BME280;69035;54.392;18.574;2023-04-10T12:28:50;102288.94;;;14.91;42.92
57074;BME280;69035;54.392;18.574;2023-04-10T12:31:26;102280.03;;;15.04;42.63
57074;BME280;69035;54.392;18.574;2023-04-10T12:33:56;102272.09;;;15.07;43.05
57074;BME280;69035;54.392;18.574;2023-04-10T12:36:27;102269.47;;;14.99;43.41
57074;BME280;69035;54.392;18.574;2023-04-10T12:38:58;102265.06;;;15.00;43.34
57074;BME280;69035;54.392;18.574;2023-04-10T12:41:30;102265.06;;;15.02;43.54
57074;BME280;69035;54.392;18.574;2023-04-10T12:44:09;102256.22;;;14.99;43.71
57074;BME280;69035;54.392;18.574;2023-04-10T12:46:39;102255.31;;;15.07;43.58
57074;BME280;69035;54.392;18.574;2023-04-10T12:49:08;102251.72;;;15.17;43.87
57074;BME280;69035;54.392;18.574;2023-04-10T12:51:45;102251.53;;;15.48;42.81
57074;BME280;69035;54.392;18.574;2023-04-10T12:54:29;102242.53;;;15.67;42.13
57074;BME280;69035;54.392;18.574;2023-04-10T12:56:59;102237.97;;;15.86;42.52
57074;BME280;69035;54.392;18.574;2023-04-10T12:59:29;102237.84;;;16.02;42.28
57074;BME280;69035;54.392;18.574;2023-04-10T13:01:58;102235.97;;;16.10;42.18
57074;BME280;69035;54.392;18.574;2023-04-10T13:04:29;102228.19;;;15.95;41.60
57074;BME280;69035;54.392;18.574;2023-04-10T13:06:59;102197.34;;;15.86;42.18
57074;BME280;69035;54.392;18.574;2023-04-10T13:09:31;102228.00;;;16.10;42.30
57074;BME280;69035;54.392;18.574;2023-04-10T13:11:59;102226.28;;;16.08;42.00
57074;BME280;69035;54.392;18.574;2023-04-10T13:14:30;102211.81;;;16.36;41.96
57074;BME280;69035;54.392;18.574;2023-04-10T13:16:59;102216.38;;;16.25;40.16
57074;BME280;69035;54.392;18.574;2023-04-10T13:19:28;102215.66;;;16.09;41.84
57074;BME280;69035;54.392;18.574;2023-04-10T13:21:57;102209.38;;;16.18;42.10